Loging...

KPDC, Korea Polar Data Center

Korea Polar Data Center Scientific observations and results from Antarctica shall
be exchanged and made freely available

Keyword Search

Advanced Search

Search 17,498 data out of 28,372

Metadata Search Results1
No. Title Reg. Date
1 [KOPRI-KPDC-00001396]Wind data on ARAON DaDis for Arctic cruise, 2019 2020-02-05
2 [KOPRI-KPDC-00001427]Ship-borne radiosonde observation data over the Arctic Ocean in the 2018 Araon summer expedition(ARA09B,ARA09C) 2020-02-03
3 [KOPRI-KPDC-00001426]Ship-borne radiosonde observation data over the Arctic Ocean in the 2017 Araon summer expedition(ARA08B,ARA08C) 2020-02-03
4 [KOPRI-KPDC-00001425]Ship-borne radiosonde observation data over the Arctic Ocean in the 2016 Araon summer expedition(ARA07B,ARA07C) 2020-02-03
5 [KOPRI-KPDC-00001422]Surface observation of CH4 in the atmosphere and ocean 2020-01-09
6 [KOPRI-KPDC-00001424]Manganese nodule samples in the East siberian shelf (2019 ARA10C cruise) 2019-12-18
7 [KOPRI-KPDC-00001423]2019 Arctic Araon Cruise (ARA10C) sediment cores (multiple, gravity, and box cores) 2019-12-16
8 [KOPRI-KPDC-00001421]Hydrocasting observation of conductivity, temperature, and depth (CTD) 2019-12-16
9 [KOPRI-KPDC-00001420]Marine heat flow in Chukchi Plateau and East Siberian shelf areas on Arctic ocean 2019-12-13
10 [KOPRI-KPDC-00001408]ARA10C Sub-bottom profiler Survey Data 2019-12-13
11 [KOPRI-KPDC-00001409]ARA10C Multi-Channel Seismic Survey Data 2019-12-13
12 [KOPRI-KPDC-00001395]Wind data on ARAON DaDis for Arctic cruise, 2018 2019-11-12
13 [KOPRI-KPDC-00001394]Wind data on ARAON DaDis for Arctic cruise, 2017 2019-11-12
14 [KOPRI-KPDC-00001393]Wind data on ARAON DaDis for Arctic cruise, 2016 2019-11-12
15 [KOPRI-KPDC-00001392]Wind data on ARAON DaDis for Arctic cruise, 2015 2019-11-12
16 [KOPRI-KPDC-00001391]Wind data on ARAON DaDis for Arctic cruise, 2010 2019-11-12
17 [KOPRI-KPDC-00001390]Wind data on ARAON DaDis for Arctic cruise, 2011 2019-11-12
18 [KOPRI-KPDC-00001389]Wind data on ARAON DaDis for Arctic cruise, 2012 2019-11-12
19 [KOPRI-KPDC-00001388]Wind data on ARAON DaDis for Arctic cruise, 2013 2019-11-12
20 [KOPRI-KPDC-00001387]Wind data on ARAON DaDis for Arctic cruise, 2014 2019-11-12
21 [KOPRI-KPDC-00001386]Weather data on ARAON DaDis for Arctic cruise, 2019 2019-11-12
22 [KOPRI-KPDC-00001385]Weather data on ARAON DaDis for Arctic cruise, 2018 2019-11-12
23 [KOPRI-KPDC-00001384]Weather data on ARAON DaDis for Arctic cruise, 2017 2019-11-12
24 [KOPRI-KPDC-00001383]Weather data on ARAON DaDis for Arctic cruise, 2016 2019-11-12
25 [KOPRI-KPDC-00001370]Thermosalinograph data on ARAON DaDis for Arctic cruise, 2019 2019-11-12
26 [KOPRI-KPDC-00001369]Thermosalinograph data on ARAON DaDis for Arctic cruise, 2018 2019-11-12
27 [KOPRI-KPDC-00001368]Thermosalinograph data on ARAON DaDis for Arctic cruise, 2017 2019-11-12
28 [KOPRI-KPDC-00001367]Thermosalinograph data on ARAON DaDis for Arctic cruise, 2016 2019-11-12
29 [KOPRI-KPDC-00001366]Thermosalinograph data on ARAON DaDis for Arctic cruise, 2015 2019-11-12
30 [KOPRI-KPDC-00001365]Thermosalinograph data on ARAON DaDis for Arctic cruise, 2014 2019-11-12
31 [KOPRI-KPDC-00001364]Thermosalinograph data on ARAON DaDis for Arctic cruise, 2013 2019-11-12
32 [KOPRI-KPDC-00001363]Thermosalinograph data on ARAON DaDis for Arctic cruise, 2012 2019-11-12
33 [KOPRI-KPDC-00001362]Thermosalinograph data on ARAON DaDis for Arctic cruise, 2011 2019-11-12
34 [KOPRI-KPDC-00001361]Thermosalinograph data on ARAON DaDis for Arctic cruise, 2010 2019-11-12
35 [KOPRI-KPDC-00001351]Motion sensor data on ARAON DaDis for Arctic cruise, 2019 2019-11-12
36 [KOPRI-KPDC-00001350]Motion sensor data on ARAON DaDis for Arctic cruise, 2018 2019-11-12
37 [KOPRI-KPDC-00001349]Motion sensor data on ARAON DaDis for Arctic cruise, 2017 2019-11-12
38 [KOPRI-KPDC-00001348]Motion sensor data on ARAON DaDis for Arctic cruise, 2016 2019-11-12
39 [KOPRI-KPDC-00001347]Motion sensor data on ARAON DaDis for Arctic cruise, 2015 2019-11-12
40 [KOPRI-KPDC-00001346]Motion sensor data on ARAON DaDis for Arctic cruise, 2014 2019-11-12
41 [KOPRI-KPDC-00001345]Motion sensor data on ARAON DaDis for Arctic cruise, 2013 2019-11-12
42 [KOPRI-KPDC-00001344]Motion sensor data on ARAON DaDis for Arctic cruise, 2012 2019-11-12
43 [KOPRI-KPDC-00001343]Motion sensor data on ARAON DaDis for Arctic cruise, 2011 2019-11-12
44 [KOPRI-KPDC-00001342]Motion sensor data on ARAON DaDis for Arctic cruise, 2010 2019-11-12
45 [KOPRI-KPDC-00001331]Gyro compass data on ARAON DaDis for Arctic cruise, 2019 2019-11-08
46 [KOPRI-KPDC-00001330]Gyro compass data on ARAON DaDis for Arctic cruise, 2018 2019-11-08
47 [KOPRI-KPDC-00001329]Gyro compass data on ARAON DaDis for Arctic cruise, 2017 2019-11-08
48 [KOPRI-KPDC-00001328]Gyro compass data on ARAON DaDis for Arctic cruise, 2016 2019-11-08
49 [KOPRI-KPDC-00001327]Gyro compass data on ARAON DaDis for Arctic cruise, 2015 2019-11-08
50 [KOPRI-KPDC-00001326]Gyro compass data on ARAON DaDis for Arctic cruise, 2014 2019-11-08
51 [KOPRI-KPDC-00001325]Gyro compass data on ARAON DaDis for Arctic cruise, 2013 2019-11-08
52 [KOPRI-KPDC-00001324]Gyro compass data on ARAON DaDis for Arctic cruise, 2012 2019-11-08
53 [KOPRI-KPDC-00001323]Gyro compass data on ARAON DaDis for Arctic cruise, 2011 2019-11-08
54 [KOPRI-KPDC-00001322]Gyro compass data on ARAON DaDis for Arctic cruise, 2010 2019-11-08
55 [KOPRI-KPDC-00001261]Phytoplankton abundance in the Sea water of the Kongsfjorden in Svalbard, July 2019 2019-10-16
56 [KOPRI-KPDC-00001252]Ship-borne radiosonde observation data over the Arctic Ocean in the 2019 Araon summer expedition (ARA10B, ARA10C) 2019-10-07
57 [KOPRI-KPDC-00001243]Near-Real-Time DMSP SSMIS Daily Polar Gridded Arctic Sea Ice Concentrations 2018 2019-10-07
58 [KOPRI-KPDC-00001251]Visible Infrared Imaging Radiometer Suite Arctic 2019-10-07
59 [KOPRI-KPDC-00001250]ASI Algorithm Daily AMSR2 (AND AMSR-E) Arctic Sea ice Concentration 2013 2019-10-07
60 [KOPRI-KPDC-00001248]ASI Algorithm Daily AMSR2 (AND AMSR-E) Arctic Sea ice Concentration 2014 2019-10-07
61 [KOPRI-KPDC-00001246]ASI Algorithm Daily AMSR2 (AND AMSR-E) Arctic Sea ice Concentration 2015 2019-10-07
62 [KOPRI-PAMC-00021917]PAMC 28388 2015-12-28
63 [KOPRI-PAMC-00021916]PAMC 28387 2015-12-28
64 [KOPRI-PAMC-00021915]PAMC 28386 2015-12-28
65 [KOPRI-PAMC-00021914]PAMC 28385 2015-12-28
66 [KOPRI-PAMC-00021913]PAMC 28384 2015-12-28
67 [KOPRI-PAMC-00021912]PAMC 28383 2015-12-28
68 [KOPRI-PAMC-00021911]PAMC 28382 2015-12-28
69 [KOPRI-PAMC-00021910]PAMC 28381 2015-12-28
70 [KOPRI-PAMC-00021909]PAMC 28380 2015-12-28
71 [KOPRI-PAMC-00021908]PAMC 28379 2015-12-28
72 [KOPRI-PAMC-00021907]PAMC 28378 2015-12-28
73 [KOPRI-PAMC-00021906]PAMC 28377 2015-12-28
74 [KOPRI-PAMC-00021905]PAMC 28376 2015-12-28
75 [KOPRI-PAMC-00021904]PAMC 28375 2015-12-28
76 [KOPRI-PAMC-00021903]PAMC 28374 2015-12-28
77 [KOPRI-PAMC-00021902]PAMC 28373 2015-12-28
78 [KOPRI-PAMC-00021901]PAMC 28372 2015-12-28
79 [KOPRI-PAMC-00021900]PAMC 28371 2015-12-28
80 [KOPRI-PAMC-00021899]PAMC 28370 2015-12-28
81 [KOPRI-PAMC-00021898]PAMC 28369 2015-12-28
82 [KOPRI-PAMC-00021897]PAMC 28368 2015-12-28
83 [KOPRI-PAMC-00021896]PAMC 28367 2015-12-28
84 [KOPRI-PAMC-00021895]PAMC 28366 2015-12-28
85 [KOPRI-PAMC-00021894]PAMC 28365 2015-12-28
86 [KOPRI-PAMC-00021893]PAMC 28364 2015-12-28
87 [KOPRI-PAMC-00021892]PAMC 28363 2015-12-28
88 [KOPRI-PAMC-00021891]PAMC 28362 2015-12-28
89 [KOPRI-PAMC-00021890]PAMC 28361 2015-12-28
90 [KOPRI-PAMC-00021889]PAMC 28360 2015-12-28
91 [KOPRI-PAMC-00021888]PAMC 28359 2015-12-28
92 [KOPRI-PAMC-00021887]PAMC 28358 2015-12-28
93 [KOPRI-PAMC-00021886]PAMC 28357 2015-12-28
94 [KOPRI-PAMC-00021885]PAMC 28356 2015-12-28
95 [KOPRI-PAMC-00021884]PAMC 28355 2015-12-28
96 [KOPRI-PAMC-00021883]PAMC 28354 2015-12-28
97 [KOPRI-PAMC-00021882]PAMC 28353 2015-12-28
98 [KOPRI-PAMC-00021881]PAMC 28352 2015-12-28
99 [KOPRI-PAMC-00021880]PAMC 28351 2015-12-28
100 [KOPRI-PAMC-00021879]PAMC 28350 2015-12-28